sensor_id;sensor_type;location;lat;lon;timestamp;temperature;humidity
21167;DHT22;10741;52.272;9.580;2024-03-02T00:02:11;7.50;99.90
21167;DHT22;10741;52.272;9.580;2024-03-02T00:04:37;7.60;99.90
21167;DHT22;10741;52.272;9.580;2024-03-02T00:07:03;7.60;99.90
21167;DHT22;10741;52.272;9.580;2024-03-02T00:09:29;7.60;99.90
21167;DHT22;10741;52.272;9.580;2024-03-02T00:11:55;7.50;99.90
21167;DHT22;10741;52.272;9.580;2024-03-02T00:14:21;7.50;99.90
21167;DHT22;10741;52.272;9.580;2024-03-02T00:16:46;8.30;99.90
21167;DHT22;10741;52.272;9.580;2024-03-02T00:19:12;7.60;99.90
21167;DHT22;10741;52.272;9.580;2024-03-02T00:21:38;7.60;99.90
21167;DHT22;10741;52.272;9.580;2024-03-02T00:24:32;7.70;99.90
21167;DHT22;10741;52.272;9.580;2024-03-02T00:26:58;7.80;99.90
21167;DHT22;10741;52.272;9.580;2024-03-02T00:29:24;7.80;99.90
21167;DHT22;10741;52.272;9.580;2024-03-02T00:31:50;7.80;99.90
21167;DHT22;10741;52.272;9.580;2024-03-02T00:34:17;8.30;99.90
21167;DHT22;10741;52.272;9.580;2024-03-02T00:36:43;7.80;99.90
21167;DHT22;10741;52.272;9.580;2024-03-02T00:39:08;7.90;99.90
21167;DHT22;10741;52.272;9.580;2024-03-02T00:41:41;7.90;99.90
21167;DHT22;10741;52.272;9.580;2024-03-02T00:44:12;8.00;99.90
21167;DHT22;10741;52.272;9.580;2024-03-02T00:46:39;8.00;99.90
21167;DHT22;10741;52.272;9.580;2024-03-02T00:51:37;8.20;99.90
21167;DHT22;10741;52.272;9.580;2024-03-02T00:54:08;8.70;99.90
21167;DHT22;10741;52.272;9.580;2024-03-02T00:56:34;8.00;99.90
21167;DHT22;10741;52.272;9.580;2024-03-02T00:59:00;7.90;99.90
21167;DHT22;10741;52.272;9.580;2024-03-02T01:01:26;7.90;99.90
21167;DHT22;10741;52.272;9.580;2024-03-02T01:03:52;8.00;99.90
21167;DHT22;10741;52.272;9.580;2024-03-02T01:06:18;7.70;99.90
21167;DHT22;10741;52.272;9.580;2024-03-02T01:08:44;7.70;99.90
21167;DHT22;10741;52.272;9.580;2024-03-02T01:11:11;7.60;99.90
21167;DHT22;10741;52.272;9.580;2024-03-02T01:13:37;7.60;99.90
21167;DHT22;10741;52.272;9.580;2024-03-02T01:16:03;7.90;99.90
21167;DHT22;10741;52.272;9.580;2024-03-02T01:18:29;7.60;99.90
21167;DHT22;10741;52.272;9.580;2024-03-02T01:20:56;7.60;99.90
21167;DHT22;10741;52.272;9.580;2024-03-02T01:23:22;8.90;99.90
21167;DHT22;10741;52.272;9.580;2024-03-02T01:25:49;7.60;99.90
21167;DHT22;10741;52.272;9.580;2024-03-02T01:28:14;7.50;99.90
21167;DHT22;10741;52.272;9.580;2024-03-02T01:30:40;8.40;99.90
21167;DHT22;10741;52.272;9.580;2024-03-02T01:33:06;7.60;99.90
21167;DHT22;10741;52.272;9.580;2024-03-02T01:35:32;7.60;99.90
21167;DHT22;10741;52.272;9.580;2024-03-02T01:37:58;7.60;99.90
21167;DHT22;10741;52.272;9.580;2024-03-02T01:40:24;7.50;99.90
21167;DHT22;10741;52.272;9.580;2024-03-02T01:42:55;7.50;99.90
21167;DHT22;10741;52.272;9.580;2024-03-02T01:45:23;7.50;99.90
21167;DHT22;10741;52.272;9.580;2024-03-02T01:47:49;7.50;99.90
21167;DHT22;10741;52.272;9.580;2024-03-02T01:50:16;7.60;99.90
21167;DHT22;10741;52.272;9.580;2024-03-02T01:52:49;7.60;99.90
21167;DHT22;10741;52.272;9.580;2024-03-02T01:55:15;7.60;99.90
21167;DHT22;10741;52.272;9.580;2024-03-02T01:57:41;7.70;99.90
21167;DHT22;10741;52.272;9.580;2024-03-02T02:00:07;7.80;99.90
21167;DHT22;10741;52.272;9.580;2024-03-02T02:02:37;7.70;99.90
21167;DHT22;10741;52.272;9.580;2024-03-02T02:05:03;7.70;99.90
21167;DHT22;10741;52.272;9.580;2024-03-02T02:07:29;7.80;99.90
21167;DHT22;10741;52.272;9.580;2024-03-02T02:09:55;7.70;99.90
21167;DHT22;10741;52.272;9.580;2024-03-02T02:12:20;7.70;99.90
21167;DHT22;10741;52.272;9.580;2024-03-02T02:14:50;7.60;99.90
21167;DHT22;10741;52.272;9.580;2024-03-02T02:17:16;7.50;99.90
21167;DHT22;10741;52.272;9.580;2024-03-02T02:19:42;7.40;99.90
21167;DHT22;10741;52.272;9.580;2024-03-02T02:22:11;7.40;99.90
21167;DHT22;10741;52.272;9.580;2024-03-02T02:24:40;7.30;99.90
21167;DHT22;10741;52.272;9.580;2024-03-02T02:27:07;7.30;99.90
21167;DHT22;10741;52.272;9.580;2024-03-02T02:29:33;7.30;99.90
21167;DHT22;10741;52.272;9.580;2024-03-02T02:31:59;7.30;99.90
21167;DHT22;10741;52.272;9.580;2024-03-02T02:34:24;7.20;99.90
21167;DHT22;10741;52.272;9.580;2024-03-02T02:36:50;7.20;99.90
21167;DHT22;10741;52.272;9.580;2024-03-02T02:39:17;7.10;99.90
21167;DHT22;10741;52.272;9.580;2024-03-02T02:41:44;7.00;99.90
21167;DHT22;10741;52.272;9.580;2024-03-02T02:44:10;7.00;99.90
21167;DHT22;10741;52.272;9.580;2024-03-02T02:46:38;6.90;99.90
21167;DHT22;10741;52.272;9.580;2024-03-02T02:49:04;6.80;99.90
21167;DHT22;10741;52.272;9.580;2024-03-02T02:51:30;6.80;99.90
21167;DHT22;10741;52.272;9.580;2024-03-02T02:53:55;6.70;99.90
21167;DHT22;10741;52.272;9.580;2024-03-02T02:56:21;6.60;99.90
21167;DHT22;10741;52.272;9.580;2024-03-02T02:58:46;6.50;99.90
21167;DHT22;10741;52.272;9.580;2024-03-02T03:01:12;6.50;99.90
21167;DHT22;10741;52.272;9.580;2024-03-02T03:03:37;6.40;99.90
21167;DHT22;10741;52.272;9.580;2024-03-02T03:06:03;6.30;99.90
21167;DHT22;10741;52.272;9.580;2024-03-02T03:08:29;6.30;99.90
21167;DHT22;10741;52.272;9.580;2024-03-02T03:10:55;6.30;99.90
21167;DHT22;10741;52.272;9.580;2024-03-02T03:13:20;6.20;99.90
21167;DHT22;10741;52.272;9.580;2024-03-02T03:15:46;6.20;99.90
21167;DHT22;10741;52.272;9.580;2024-03-02T03:18:12;6.50;99.90
21167;DHT22;10741;52.272;9.580;2024-03-02T03:20:37;6.00;99.90
21167;DHT22;10741;52.272;9.580;2024-03-02T03:23:03;6.00;99.90
21167;DHT22;10741;52.272;9.580;2024-03-02T03:25:30;6.00;99.90
21167;DHT22;10741;52.272;9.580;2024-03-02T03:27:55;6.00;99.90
21167;DHT22;10741;52.272;9.580;2024-03-02T03:30:21;6.00;99.90
21167;DHT22;10741;52.272;9.580;2024-03-02T03:32:47;6.10;99.90
21167;DHT22;10741;52.272;9.580;2024-03-02T03:35:13;6.00;99.90
21167;DHT22;10741;52.272;9.580;2024-03-02T03:37:41;6.00;99.90
21167;DHT22;10741;52.272;9.580;2024-03-02T03:40:07;6.10;99.90
21167;DHT22;10741;52.272;9.580;2024-03-02T03:42:36;6.20;99.90
21167;DHT22;10741;52.272;9.580;2024-03-02T03:45:02;6.20;99.90
21167;DHT22;10741;52.272;9.580;2024-03-02T03:47:28;6.20;99.90
21167;DHT22;10741;52.272;9.580;2024-03-02T03:49:53;6.20;99.90
21167;DHT22;10741;52.272;9.580;2024-03-02T03:52:19;6.30;99.90
21167;DHT22;10741;52.272;9.580;2024-03-02T03:54:44;6.40;99.90
21167;DHT22;10741;52.272;9.580;2024-03-02T03:57:10;5.90;99.90
21167;DHT22;10741;52.272;9.580;2024-03-02T03:59:36;6.70;99.90
21167;DHT22;10741;52.272;9.580;2024-03-02T04:02:03;6.50;99.90
21167;DHT22;10741;52.272;9.580;2024-03-02T04:04:29;6.50;99.90
21167;DHT22;10741;52.272;9.580;2024-03-02T04:06:54;6.50;99.90
21167;DHT22;10741;52.272;9.580;2024-03-02T04:09:20;6.50;99.90
21167;DHT22;10741;52.272;9.580;2024-03-02T04:11:46;6.40;99.90
21167;DHT22;10741;52.272;9.580;2024-03-02T04:14:11;6.40;99.90
21167;DHT22;10741;52.272;9.580;2024-03-02T04:16:38;6.40;99.90
21167;DHT22;10741;52.272;9.580;2024-03-02T04:19:04;6.30;99.90
21167;DHT22;10741;52.272;9.580;2024-03-02T04:21:30;6.30;99.90
21167;DHT22;10741;52.272;9.580;2024-03-02T04:23:56;6.30;99.90
21167;DHT22;10741;52.272;9.580;2024-03-02T04:26:24;6.60;99.90
21167;DHT22;10741;52.272;9.580;2024-03-02T04:28:54;6.10;99.90
21167;DHT22;10741;52.272;9.580;2024-03-02T04:31:20;6.00;99.90
21167;DHT22;10741;52.272;9.580;2024-03-02T04:33:45;6.00;99.90
21167;DHT22;10741;52.272;9.580;2024-03-02T04:36:11;5.90;99.90
21167;DHT22;10741;52.272;9.580;2024-03-02T04:38:40;5.80;99.90
21167;DHT22;10741;52.272;9.580;2024-03-02T04:41:07;5.80;99.90
21167;DHT22;10741;52.272;9.580;2024-03-02T04:43:33;5.70;99.90
21167;DHT22;10741;52.272;9.580;2024-03-02T04:45:59;5.60;99.90
21167;DHT22;10741;52.272;9.580;2024-03-02T04:48:25;5.50;99.90
21167;DHT22;10741;52.272;9.580;2024-03-02T04:50:51;5.50;99.90
21167;DHT22;10741;52.272;9.580;2024-03-02T04:53:16;5.40;99.90
21167;DHT22;10741;52.272;9.580;2024-03-02T04:55:42;5.40;99.90
21167;DHT22;10741;52.272;9.580;2024-03-02T04:58:08;5.30;99.90
21167;DHT22;10741;52.272;9.580;2024-03-02T05:00:34;5.30;99.90
21167;DHT22;10741;52.272;9.580;2024-03-02T05:03:00;5.30;99.90
21167;DHT22;10741;52.272;9.580;2024-03-02T05:05:26;5.40;99.90
21167;DHT22;10741;52.272;9.580;2024-03-02T05:07:52;5.50;99.90
21167;DHT22;10741;52.272;9.580;2024-03-02T05:10:18;5.50;99.90
21167;DHT22;10741;52.272;9.580;2024-03-02T05:12:44;5.60;99.90
21167;DHT22;10741;52.272;9.580;2024-03-02T05:15:10;5.60;99.90
21167;DHT22;10741;52.272;9.580;2024-03-02T05:17:37;5.60;99.90
21167;DHT22;10741;52.272;9.580;2024-03-02T05:20:04;5.50;99.90
21167;DHT22;10741;52.272;9.580;2024-03-02T05:22:29;5.50;99.90
21167;DHT22;10741;52.272;9.580;2024-03-02T05:24:55;5.50;99.90
21167;DHT22;10741;52.272;9.580;2024-03-02T05:27:21;5.50;99.90
21167;DHT22;10741;52.272;9.580;2024-03-02T05:29:47;5.40;99.90
21167;DHT22;10741;52.272;9.580;2024-03-02T05:32:13;5.40;99.90
21167;DHT22;10741;52.272;9.580;2024-03-02T05:34:38;5.40;99.90
21167;DHT22;10741;52.272;9.580;2024-03-02T05:37:04;5.40;99.90
21167;DHT22;10741;52.272;9.580;2024-03-02T05:39:29;5.40;99.90
21167;DHT22;10741;52.272;9.580;2024-03-02T05:41:55;5.40;99.90
21167;DHT22;10741;52.272;9.580;2024-03-02T05:44:21;5.30;99.90
21167;DHT22;10741;52.272;9.580;2024-03-02T05:46:47;5.30;99.90
21167;DHT22;10741;52.272;9.580;2024-03-02T05:49:13;6.00;99.90
21167;DHT22;10741;52.272;9.580;2024-03-02T05:51:39;5.20;99.90
21167;DHT22;10741;52.272;9.580;2024-03-02T05:54:04;5.10;99.90
21167;DHT22;10741;52.272;9.580;2024-03-02T05:56:30;5.20;99.90
21167;DHT22;10741;52.272;9.580;2024-03-02T05:58:56;5.20;99.90
21167;DHT22;10741;52.272;9.580;2024-03-02T06:01:43;5.20;99.90
21167;DHT22;10741;52.272;9.580;2024-03-02T06:04:10;5.30;99.90
21167;DHT22;10741;52.272;9.580;2024-03-02T06:06:36;5.20;99.90
21167;DHT22;10741;52.272;9.580;2024-03-02T06:09:03;5.20;99.90
21167;DHT22;10741;52.272;9.580;2024-03-02T06:11:34;5.20;99.90
21167;DHT22;10741;52.272;9.580;2024-03-02T06:13:59;5.20;99.90
21167;DHT22;10741;52.272;9.580;2024-03-02T06:16:25;5.80;99.90
21167;DHT22;10741;52.272;9.580;2024-03-02T06:18:50;5.20;99.90
21167;DHT22;10741;52.272;9.580;2024-03-02T06:21:17;5.20;99.90
21167;DHT22;10741;52.272;9.580;2024-03-02T06:23:43;5.20;99.90
21167;DHT22;10741;52.272;9.580;2024-03-02T06:26:09;5.20;99.90
21167;DHT22;10741;52.272;9.580;2024-03-02T06:28:35;5.20;99.90
21167;DHT22;10741;52.272;9.580;2024-03-02T06:31:01;5.30;99.90
21167;DHT22;10741;52.272;9.580;2024-03-02T06:33:27;5.40;99.90
21167;DHT22;10741;52.272;9.580;2024-03-02T06:35:54;5.40;99.90
21167;DHT22;10741;52.272;9.580;2024-03-02T06:38:19;5.50;99.90
21167;DHT22;10741;52.272;9.580;2024-03-02T06:40:45;5.60;99.90
21167;DHT22;10741;52.272;9.580;2024-03-02T06:43:11;5.60;99.90
21167;DHT22;10741;52.272;9.580;2024-03-02T06:45:36;5.70;99.90
21167;DHT22;10741;52.272;9.580;2024-03-02T06:48:02;5.70;99.90
21167;DHT22;10741;52.272;9.580;2024-03-02T06:50:28;6.20;99.90
21167;DHT22;10741;52.272;9.580;2024-03-02T06:52:54;5.90;99.90
21167;DHT22;10741;52.272;9.580;2024-03-02T06:55:21;6.00;99.90
21167;DHT22;10741;52.272;9.580;2024-03-02T06:57:47;6.20;99.90
21167;DHT22;10741;52.272;9.580;2024-03-02T07:00:13;6.40;99.90
21167;DHT22;10741;52.272;9.580;2024-03-02T07:02:39;6.40;99.90
21167;DHT22;10741;52.272;9.580;2024-03-02T07:05:08;6.50;99.90
21167;DHT22;10741;52.272;9.580;2024-03-02T07:07:34;6.60;99.90
21167;DHT22;10741;52.272;9.580;2024-03-02T07:10:00;6.70;99.90
21167;DHT22;10741;52.272;9.580;2024-03-02T07:12:26;6.90;99.90
21167;DHT22;10741;52.272;9.580;2024-03-02T07:14:52;7.40;99.90
21167;DHT22;10741;52.272;9.580;2024-03-02T07:17:32;7.00;99.90
21167;DHT22;10741;52.272;9.580;2024-03-02T07:19:58;7.10;99.90
21167;DHT22;10741;52.272;9.580;2024-03-02T07:22:24;7.20;99.90
21167;DHT22;10741;52.272;9.580;2024-03-02T07:24:50;7.30;99.90
21167;DHT22;10741;52.272;9.580;2024-03-02T07:27:16;7.50;99.90
21167;DHT22;10741;52.272;9.580;2024-03-02T07:29:42;7.70;99.90
21167;DHT22;10741;52.272;9.580;2024-03-02T07:32:09;7.80;99.90
21167;DHT22;10741;52.272;9.580;2024-03-02T07:34:35;7.90;99.90
21167;DHT22;10741;52.272;9.580;2024-03-02T07:37:00;8.10;99.90
21167;DHT22;10741;52.272;9.580;2024-03-02T07:39:26;8.30;99.90
21167;DHT22;10741;52.272;9.580;2024-03-02T07:41:52;8.60;99.90
21167;DHT22;10741;52.272;9.580;2024-03-02T07:44:18;8.90;99.90
21167;DHT22;10741;52.272;9.580;2024-03-02T07:46:48;9.90;99.90
21167;DHT22;10741;52.272;9.580;2024-03-02T07:49:17;9.80;99.90
21167;DHT22;10741;52.272;9.580;2024-03-02T07:51:43;10.20;99.90
21167;DHT22;10741;52.272;9.580;2024-03-02T07:54:08;10.30;99.90
21167;DHT22;10741;52.272;9.580;2024-03-02T07:56:34;10.50;99.90
21167;DHT22;10741;52.272;9.580;2024-03-02T07:59:01;10.80;99.90
21167;DHT22;10741;52.272;9.580;2024-03-02T08:01:31;11.20;99.90
21167;DHT22;10741;52.272;9.580;2024-03-02T08:03:58;11.60;99.90
21167;DHT22;10741;52.272;9.580;2024-03-02T08:06:26;12.20;99.90
21167;DHT22;10741;52.272;9.580;2024-03-02T08:09:00;11.60;99.90
21167;DHT22;10741;52.272;9.580;2024-03-02T08:11:27;11.90;99.90
21167;DHT22;10741;52.272;9.580;2024-03-02T08:13:53;12.20;99.90
21167;DHT22;10741;52.272;9.580;2024-03-02T08:16:23;12.20;99.90
21167;DHT22;10741;52.272;9.580;2024-03-02T08:18:51;12.20;99.90
21167;DHT22;10741;52.272;9.580;2024-03-02T08:21:17;12.30;99.90
21167;DHT22;10741;52.272;9.580;2024-03-02T08:23:43;12.70;99.90
21167;DHT22;10741;52.272;9.580;2024-03-02T08:26:09;12.30;99.90
21167;DHT22;10741;52.272;9.580;2024-03-02T08:28:35;13.10;99.90
21167;DHT22;10741;52.272;9.580;2024-03-02T08:31:06;13.30;99.90
21167;DHT22;10741;52.272;9.580;2024-03-02T08:33:32;14.10;99.90
21167;DHT22;10741;52.272;9.580;2024-03-02T08:35:58;14.60;99.90
21167;DHT22;10741;52.272;9.580;2024-03-02T08:38:24;13.90;99.90
21167;DHT22;10741;52.272;9.580;2024-03-02T08:40:50;13.70;99.90
21167;DHT22;10741;52.272;9.580;2024-03-02T08:43:16;13.60;99.90
21167;DHT22;10741;52.272;9.580;2024-03-02T08:45:41;13.30;99.90
21167;DHT22;10741;52.272;9.580;2024-03-02T08:48:08;13.30;99.90
21167;DHT22;10741;52.272;9.580;2024-03-02T08:50:34;13.20;99.90
21167;DHT22;10741;52.272;9.580;2024-03-02T08:53:00;12.70;99.90
21167;DHT22;10741;52.272;9.580;2024-03-02T08:55:26;12.80;99.90
21167;DHT22;10741;52.272;9.580;2024-03-02T08:57:52;12.40;99.90
21167;DHT22;10741;52.272;9.580;2024-03-02T09:00:18;12.50;99.90
21167;DHT22;10741;52.272;9.580;2024-03-02T09:02:44;12.30;99.90
21167;DHT22;10741;52.272;9.580;2024-03-02T09:05:12;12.20;99.90
21167;DHT22;10741;52.272;9.580;2024-03-02T09:07:38;11.90;99.90
21167;DHT22;10741;52.272;9.580;2024-03-02T09:10:07;11.80;99.90
21167;DHT22;10741;52.272;9.580;2024-03-02T09:12:33;11.60;99.90
21167;DHT22;10741;52.272;9.580;2024-03-02T09:15:00;11.80;99.90
21167;DHT22;10741;52.272;9.580;2024-03-02T09:17:26;11.50;99.90
21167;DHT22;10741;52.272;9.580;2024-03-02T09:19:51;11.50;99.90
21167;DHT22;10741;52.272;9.580;2024-03-02T09:22:21;11.40;99.90
21167;DHT22;10741;52.272;9.580;2024-03-02T09:24:47;11.40;99.90
21167;DHT22;10741;52.272;9.580;2024-03-02T09:27:12;11.40;99.90
21167;DHT22;10741;52.272;9.580;2024-03-02T09:29:38;11.40;99.90
21167;DHT22;10741;52.272;9.580;2024-03-02T09:34:32;11.30;99.90
21167;DHT22;10741;52.272;9.580;2024-03-02T09:36:58;11.30;99.90
21167;DHT22;10741;52.272;9.580;2024-03-02T09:39:24;11.90;99.90
21167;DHT22;10741;52.272;9.580;2024-03-02T09:41:51;12.90;99.90
21167;DHT22;10741;52.272;9.580;2024-03-02T09:44:17;11.40;99.90
21167;DHT22;10741;52.272;9.580;2024-03-02T09:46:43;11.60;99.90
21167;DHT22;10741;52.272;9.580;2024-03-02T09:49:10;11.70;99.90
21167;DHT22;10741;52.272;9.580;2024-03-02T09:51:37;11.80;99.90
21167;DHT22;10741;52.272;9.580;2024-03-02T09:54:03;12.00;99.90
21167;DHT22;10741;52.272;9.580;2024-03-02T09:56:28;12.30;99.90
21167;DHT22;10741;52.272;9.580;2024-03-02T09:58:54;13.30;99.90
21167;DHT22;10741;52.272;9.580;2024-03-02T10:01:20;12.90;99.90
21167;DHT22;10741;52.272;9.580;2024-03-02T10:03:45;13.10;99.90
21167;DHT22;10741;52.272;9.580;2024-03-02T10:06:28;14.80;99.90
21167;DHT22;10741;52.272;9.580;2024-03-02T10:08:55;13.80;99.90
21167;DHT22;10741;52.272;9.580;2024-03-02T10:11:39;14.30;99.90
21167;DHT22;10741;52.272;9.580;2024-03-02T10:14:11;14.40;99.90
21167;DHT22;10741;52.272;9.580;2024-03-02T10:16:44;14.00;99.90
21167;DHT22;10741;52.272;9.580;2024-03-02T10:19:19;14.30;99.90
21167;DHT22;10741;52.272;9.580;2024-03-02T10:21:54;14.40;99.90
21167;DHT22;10741;52.272;9.580;2024-03-02T10:24:22;15.20;99.90
21167;DHT22;10741;52.272;9.580;2024-03-02T10:26:48;15.30;99.90
21167;DHT22;10741;52.272;9.580;2024-03-02T10:29:14;14.80;99.90
21167;DHT22;10741;52.272;9.580;2024-03-02T10:31:44;14.80;99.90
21167;DHT22;10741;52.272;9.580;2024-03-02T10:34:12;14.50;99.90
21167;DHT22;10741;52.272;9.580;2024-03-02T10:36:40;15.00;99.90
21167;DHT22;10741;52.272;9.580;2024-03-02T10:39:07;14.60;99.90
21167;DHT22;10741;52.272;9.580;2024-03-02T10:41:37;14.50;99.90
21167;DHT22;10741;52.272;9.580;2024-03-02T10:44:05;14.40;99.90
21167;DHT22;10741;52.272;9.580;2024-03-02T10:46:32;14.20;99.90
21167;DHT22;10741;52.272;9.580;2024-03-02T10:49:03;14.60;99.90
21167;DHT22;10741;52.272;9.580;2024-03-02T10:51:33;13.70;99.90
21167;DHT22;10741;52.272;9.580;2024-03-02T10:54:00;13.70;99.90
21167;DHT22;10741;52.272;9.580;2024-03-02T10:56:34;14.30;99.90
21167;DHT22;10741;52.272;9.580;2024-03-02T10:59:13;14.10;99.90
21167;DHT22;10741;52.272;9.580;2024-03-02T11:01:43;13.50;99.90
21167;DHT22;10741;52.272;9.580;2024-03-02T11:04:09;13.30;99.90
21167;DHT22;10741;52.272;9.580;2024-03-02T11:06:36;13.60;99.90
21167;DHT22;10741;52.272;9.580;2024-03-02T11:09:07;13.30;99.90
21167;DHT22;10741;52.272;9.580;2024-03-02T11:11:37;12.70;99.90
21167;DHT22;10741;52.272;9.580;2024-03-02T11:14:07;13.30;99.90
21167;DHT22;10741;52.272;9.580;2024-03-02T11:16:38;13.70;99.90
21167;DHT22;10741;52.272;9.580;2024-03-02T11:19:11;13.30;99.90
21167;DHT22;10741;52.272;9.580;2024-03-02T11:21:38;13.30;99.90
21167;DHT22;10741;52.272;9.580;2024-03-02T11:26:51;13.00;99.90
21167;DHT22;10741;52.272;9.580;2024-03-02T11:32:17;13.80;99.90
21167;DHT22;10741;52.272;9.580;2024-03-02T11:34:48;13.80;99.90
21167;DHT22;10741;52.272;9.580;2024-03-02T11:37:16;13.70;99.90
21167;DHT22;10741;52.272;9.580;2024-03-02T11:39:48;15.00;99.90
21167;DHT22;10741;52.272;9.580;2024-03-02T11:42:28;13.90;99.90
21167;DHT22;10741;52.272;9.580;2024-03-02T11:44:57;13.70;99.90
21167;DHT22;10741;52.272;9.580;2024-03-02T11:47:27;13.70;99.90
21167;DHT22;10741;52.272;9.580;2024-03-02T11:49:59;14.20;99.90
21167;DHT22;10741;52.272;9.580;2024-03-02T11:52:53;14.50;99.90
21167;DHT22;10741;52.272;9.580;2024-03-02T11:55:20;14.30;99.90
21167;DHT22;10741;52.272;9.580;2024-03-02T11:57:47;14.40;99.90
21167;DHT22;10741;52.272;9.580;2024-03-02T12:00:19;15.40;99.90
21167;DHT22;10741;52.272;9.580;2024-03-02T12:03:06;15.10;99.90
21167;DHT22;10741;52.272;9.580;2024-03-02T12:05:32;15.40;99.90
21167;DHT22;10741;52.272;9.580;2024-03-02T12:07:59;16.20;99.90
21167;DHT22;10741;52.272;9.580;2024-03-02T12:10:26;17.20;99.90
21167;DHT22;10741;52.272;9.580;2024-03-02T12:13:06;18.20;99.90
21167;DHT22;10741;52.272;9.580;2024-03-02T12:15:34;18.30;99.90
21167;DHT22;10741;52.272;9.580;2024-03-02T12:18:01;18.20;99.90
21167;DHT22;10741;52.272;9.580;2024-03-02T12:20:29;18.70;99.90
21167;DHT22;10741;52.272;9.580;2024-03-02T12:23:27;18.60;99.90
21167;DHT22;10741;52.272;9.580;2024-03-02T12:25:53;19.10;99.90
21167;DHT22;10741;52.272;9.580;2024-03-02T12:28:19;18.50;99.90
21167;DHT22;10741;52.272;9.580;2024-03-02T12:30:45;18.30;99.90
21167;DHT22;10741;52.272;9.580;2024-03-02T12:33:13;18.30;99.90
21167;DHT22;10741;52.272;9.580;2024-03-02T12:35:38;18.20;99.90
21167;DHT22;10741;52.272;9.580;2024-03-02T12:38:05;18.90;99.90
21167;DHT22;10741;52.272;9.580;2024-03-02T12:40:31;18.60;99.90
21167;DHT22;10741;52.272;9.580;2024-03-02T12:42:57;18.70;99.90
21167;DHT22;10741;52.272;9.580;2024-03-02T12:45:23;18.90;99.90
21167;DHT22;10741;52.272;9.580;2024-03-02T12:47:51;18.80;99.90
21167;DHT22;10741;52.272;9.580;2024-03-02T12:50:17;18.60;99.90
21167;DHT22;10741;52.272;9.580;2024-03-02T12:52:43;18.70;99.90
21167;DHT22;10741;52.272;9.580;2024-03-02T12:55:09;18.50;99.90
21167;DHT22;10741;52.272;9.580;2024-03-02T12:57:35;18.10;99.90
21167;DHT22;10741;52.272;9.580;2024-03-02T13:00:05;17.50;99.90
21167;DHT22;10741;52.272;9.580;2024-03-02T13:02:40;17.50;99.90
21167;DHT22;10741;52.272;9.580;2024-03-02T13:05:07;17.50;99.90
21167;DHT22;10741;52.272;9.580;2024-03-02T13:07:36;17.60;99.90
21167;DHT22;10741;52.272;9.580;2024-03-02T13:10:03;18.00;99.90
21167;DHT22;10741;52.272;9.580;2024-03-02T13:12:30;18.30;99.90
21167;DHT22;10741;52.272;9.580;2024-03-02T13:14:58;18.30;99.90
21167;DHT22;10741;52.272;9.580;2024-03-02T13:17:23;18.50;99.90
21167;DHT22;10741;52.272;9.580;2024-03-02T13:19:56;18.50;99.90
21167;DHT22;10741;52.272;9.580;2024-03-02T13:22:23;18.70;99.90
21167;DHT22;10741;52.272;9.580;2024-03-02T13:24:49;18.90;99.90
21167;DHT22;10741;52.272;9.580;2024-03-02T13:27:15;19.90;99.90
21167;DHT22;10741;52.272;9.580;2024-03-02T13:29:42;19.40;99.90
21167;DHT22;10741;52.272;9.580;2024-03-02T13:32:07;19.90;99.90
21167;DHT22;10741;52.272;9.580;2024-03-02T13:34:35;19.80;99.90
21167;DHT22;10741;52.272;9.580;2024-03-02T13:37:01;19.70;99.90
21167;DHT22;10741;52.272;9.580;2024-03-02T13:39:27;19.60;99.90
21167;DHT22;10741;52.272;9.580;2024-03-02T13:41:56;20.00;99.90
21167;DHT22;10741;52.272;9.580;2024-03-02T13:44:29;20.20;99.90
21167;DHT22;10741;52.272;9.580;2024-03-02T13:46:54;19.90;99.90
21167;DHT22;10741;52.272;9.580;2024-03-02T13:49:20;19.60;99.90
21167;DHT22;10741;52.272;9.580;2024-03-02T13:51:45;19.90;99.90
21167;DHT22;10741;52.272;9.580;2024-03-02T13:54:11;19.40;99.90
21167;DHT22;10741;52.272;9.580;2024-03-02T13:56:37;19.40;99.90
21167;DHT22;10741;52.272;9.580;2024-03-02T13:59:07;19.40;99.90
21167;DHT22;10741;52.272;9.580;2024-03-02T14:01:33;19.10;99.90
21167;DHT22;10741;52.272;9.580;2024-03-02T14:03:59;19.30;99.90
21167;DHT22;10741;52.272;9.580;2024-03-02T14:06:24;19.50;99.90
21167;DHT22;10741;52.272;9.580;2024-03-02T14:08:52;19.50;99.90
21167;DHT22;10741;52.272;9.580;2024-03-02T14:11:18;19.70;99.90
21167;DHT22;10741;52.272;9.580;2024-03-02T14:13:45;20.00;99.90
21167;DHT22;10741;52.272;9.580;2024-03-02T14:16:15;20.00;99.90
21167;DHT22;10741;52.272;9.580;2024-03-02T14:18:41;19.60;99.90
21167;DHT22;10741;52.272;9.580;2024-03-02T14:21:07;19.60;99.90
21167;DHT22;10741;52.272;9.580;2024-03-02T14:23:33;19.20;99.90
21167;DHT22;10741;52.272;9.580;2024-03-02T14:25:58;19.10;99.90
21167;DHT22;10741;52.272;9.580;2024-03-02T14:28:24;18.30;99.90
21167;DHT22;10741;52.272;9.580;2024-03-02T14:30:50;18.20;99.90
21167;DHT22;10741;52.272;9.580;2024-03-02T14:33:16;18.50;99.90
21167;DHT22;10741;52.272;9.580;2024-03-02T14:35:42;18.40;99.90
21167;DHT22;10741;52.272;9.580;2024-03-02T14:38:08;18.40;99.90
21167;DHT22;10741;52.272;9.580;2024-03-02T14:40:33;18.30;99.90
21167;DHT22;10741;52.272;9.580;2024-03-02T14:42:59;18.30;99.90
21167;DHT22;10741;52.272;9.580;2024-03-02T14:45:25;17.90;99.90
21167;DHT22;10741;52.272;9.580;2024-03-02T14:47:52;18.10;99.90
21167;DHT22;10741;52.272;9.580;2024-03-02T14:50:17;18.00;99.90
21167;DHT22;10741;52.272;9.580;2024-03-02T14:52:44;17.90;99.90
21167;DHT22;10741;52.272;9.580;2024-03-02T14:55:11;17.70;99.90
21167;DHT22;10741;52.272;9.580;2024-03-02T14:57:36;17.70;99.90
21167;DHT22;10741;52.272;9.580;2024-03-02T15:00:02;17.80;99.90
21167;DHT22;10741;52.272;9.580;2024-03-02T15:02:29;17.80;99.90
21167;DHT22;10741;52.272;9.580;2024-03-02T15:04:55;17.70;99.90
21167;DHT22;10741;52.272;9.580;2024-03-02T15:07:20;18.10;99.90
21167;DHT22;10741;52.272;9.580;2024-03-02T15:09:46;18.30;99.90
21167;DHT22;10741;52.272;9.580;2024-03-02T15:12:11;18.10;99.90
21167;DHT22;10741;52.272;9.580;2024-03-02T15:14:40;18.20;99.90
21167;DHT22;10741;52.272;9.580;2024-03-02T15:17:14;17.70;99.90
21167;DHT22;10741;52.272;9.580;2024-03-02T15:19:44;17.30;99.90
21167;DHT22;10741;52.272;9.580;2024-03-02T15:22:10;17.10;99.90
21167;DHT22;10741;52.272;9.580;2024-03-02T15:24:36;17.10;99.90
21167;DHT22;10741;52.272;9.580;2024-03-02T15:27:03;16.90;99.90
21167;DHT22;10741;52.272;9.580;2024-03-02T15:29:30;16.80;99.90
21167;DHT22;10741;52.272;9.580;2024-03-02T15:31:57;16.50;99.90
21167;DHT22;10741;52.272;9.580;2024-03-02T15:34:22;16.00;99.90
21167;DHT22;10741;52.272;9.580;2024-03-02T15:36:49;15.60;99.90
21167;DHT22;10741;52.272;9.580;2024-03-02T15:39:17;15.30;99.90
21167;DHT22;10741;52.272;9.580;2024-03-02T15:41:44;15.10;99.90
21167;DHT22;10741;52.272;9.580;2024-03-02T15:44:10;14.80;99.90
21167;DHT22;10741;52.272;9.580;2024-03-02T15:46:36;14.60;99.90
21167;DHT22;10741;52.272;9.580;2024-03-02T15:49:01;14.40;99.90